A- A+ FrançaisEnglishEspañol中国

最近的 ETNL Laage MilELLX Luxembourg-FindelLFAT Le-Touquet-Paris-PlageEPKR KrosnoDIAP Abidjan Felix Houphouet BoignyLFSD Dijon Longvic

飞行员的航空天气,使用METAR(气象机场报告)进行的飞行准备和TAF(终端机场预报:针对以下情况的短期天气预报)航空)。 以及其他资源,例如VAC(目视进近图)和NOTAM(通知飞行员)以进行预试飞行.

METAR, TAF, VAC, NOTAM Grand Marais机场 (美国) / OACI KCKC/ IATA GRM

它位于附近 Grand Marais, Pine Mountain Trailer Court 在 2 km, Grand Marais 在 10 km, Tofte 在 45 km, Mackies 在 50 km, Neebing 在 81 km, Silver Bay 在 89 km, Kashabowie 在 90 km, Shebandowan 在 91 km,

机场的高度为 Grand Marais机场的

548 m = 1798 ft

附近的机场Grand Marais机场的

跑道 Grand Marais机场的

目前的天气 Grand Marais机场的 - KCKC

ciel dégagé
26°C

Vent 7 km/h

可提供5天天气预报 Pine Mountain Trailer Court 在 2 km, Grand Marais 在 10 km, Tofte 在 45 km, Mackies 在 50 km, Neebing 在 81 km, Silver Bay 在 89 km, Kashabowie 在 90 km, Shebandowan 在 91 km,

METAR Grand Marais机场的 - KCKC

KCKC 302335Z AUTO 10004KT 10SM CLR 26/18 A2994 RMK AO2

Grand Marais机场METAR解码 (美国)

KCKC机场发行的METAR日期2020年07月01日至23:35 GMT. 这是一个自动生成的METAR, 警告:此METAR已过期, 已于 1 天 9 小时 49 分钟.

可见度为16.1 km = 10 sm.

温度为26°C = 79 °F 露点为18°C = 64 °F 。 这相当于61%的相对湿度。.

QNH是1014 hPa = 29.94 inHg

的风4 kt = 7 km/h, 风向为100°.

天空晴朗

备注 AO2

TAF Grand Marais机场的 - KCKC

没有TAF

Grand Marais机场的NOTAM

提供的NOTAM不能保证其时事性。 在将其用于飞行准备或在飞行期间使用之前,飞行员是唯一负责验证其有效性的人员。

没有通知

数据源